sensor_id;sensor_type;location;lat;lon;timestamp;P1;durP1;ratioP1;P2;durP2;ratioP2
20026;SDS011;10174;42.688;23.344;2023-04-03T00:01:05;16.00;;;4.70;;
20026;SDS011;10174;42.688;23.344;2023-04-03T00:03:31;14.32;;;5.32;;
20026;SDS011;10174;42.688;23.344;2023-04-03T00:05:57;15.93;;;5.53;;
20026;SDS011;10174;42.688;23.344;2023-04-03T00:08:22;14.10;;;6.57;;
20026;SDS011;10174;42.688;23.344;2023-04-03T00:10:48;15.30;;;5.55;;
20026;SDS011;10174;42.688;23.344;2023-04-03T00:13:13;15.25;;;5.97;;
20026;SDS011;10174;42.688;23.344;2023-04-03T00:15:39;22.58;;;8.07;;
20026;SDS011;10174;42.688;23.344;2023-04-03T00:18:06;23.50;;;10.05;;
20026;SDS011;10174;42.688;23.344;2023-04-03T00:20:32;20.88;;;9.10;;
20026;SDS011;10174;42.688;23.344;2023-04-03T00:22:58;27.83;;;9.25;;
20026;SDS011;10174;42.688;23.344;2023-04-03T00:25:24;29.80;;;10.40;;
20026;SDS011;10174;42.688;23.344;2023-04-03T00:27:49;28.63;;;11.25;;
20026;SDS011;10174;42.688;23.344;2023-04-03T00:30:16;30.88;;;10.27;;
20026;SDS011;10174;42.688;23.344;2023-04-03T00:32:43;31.77;;;10.98;;
20026;SDS011;10174;42.688;23.344;2023-04-03T00:35:09;30.42;;;10.80;;
20026;SDS011;10174;42.688;23.344;2023-04-03T00:37:35;28.08;;;11.43;;
20026;SDS011;10174;42.688;23.344;2023-04-03T00:40:00;27.73;;;10.85;;
20026;SDS011;10174;42.688;23.344;2023-04-03T00:42:26;31.65;;;11.70;;
20026;SDS011;10174;42.688;23.344;2023-04-03T00:47:20;30.33;;;11.95;;
20026;SDS011;10174;42.688;23.344;2023-04-03T00:49:46;32.78;;;12.02;;
20026;SDS011;10174;42.688;23.344;2023-04-03T00:52:13;24.55;;;10.75;;
20026;SDS011;10174;42.688;23.344;2023-04-03T00:54:41;29.83;;;10.77;;
20026;SDS011;10174;42.688;23.344;2023-04-03T00:57:08;30.13;;;10.35;;
20026;SDS011;10174;42.688;23.344;2023-04-03T00:59:38;29.67;;;9.90;;
20026;SDS011;10174;42.688;23.344;2023-04-03T01:02:09;20.98;;;10.15;;
20026;SDS011;10174;42.688;23.344;2023-04-03T01:07:03;22.38;;;10.40;;
20026;SDS011;10174;42.688;23.344;2023-04-03T01:09:36;21.50;;;10.48;;
20026;SDS011;10174;42.688;23.344;2023-04-03T01:14:45;26.85;;;10.48;;
20026;SDS011;10174;42.688;23.344;2023-04-03T01:20:55;25.95;;;10.38;;
20026;SDS011;10174;42.688;23.344;2023-04-03T01:25:41;30.90;;;10.73;;
20026;SDS011;10174;42.688;23.344;2023-04-03T01:28:09;27.20;;;9.98;;
20026;SDS011;10174;42.688;23.344;2023-04-03T01:30:41;28.60;;;11.45;;
20026;SDS011;10174;42.688;23.344;2023-04-03T01:33:20;35.53;;;11.50;;
20026;SDS011;10174;42.688;23.344;2023-04-03T01:35:45;34.10;;;10.95;;
20026;SDS011;10174;42.688;23.344;2023-04-03T01:38:11;27.60;;;10.00;;
20026;SDS011;10174;42.688;23.344;2023-04-03T01:40:36;36.45;;;10.57;;
20026;SDS011;10174;42.688;23.344;2023-04-03T01:43:02;24.83;;;10.00;;
20026;SDS011;10174;42.688;23.344;2023-04-03T01:45:27;20.40;;;8.68;;
20026;SDS011;10174;42.688;23.344;2023-04-03T01:47:52;25.42;;;9.00;;
20026;SDS011;10174;42.688;23.344;2023-04-03T01:50:18;21.90;;;9.43;;
20026;SDS011;10174;42.688;23.344;2023-04-03T01:52:43;23.55;;;8.50;;
20026;SDS011;10174;42.688;23.344;2023-04-03T01:55:08;31.77;;;10.55;;
20026;SDS011;10174;42.688;23.344;2023-04-03T01:57:34;25.92;;;10.48;;
20026;SDS011;10174;42.688;23.344;2023-04-03T01:59:59;27.05;;;9.70;;
20026;SDS011;10174;42.688;23.344;2023-04-03T02:02:25;26.23;;;9.88;;
20026;SDS011;10174;42.688;23.344;2023-04-03T02:04:50;25.30;;;9.50;;
20026;SDS011;10174;42.688;23.344;2023-04-03T02:07:15;24.17;;;9.32;;
20026;SDS011;10174;42.688;23.344;2023-04-03T02:09:41;33.50;;;9.75;;
20026;SDS011;10174;42.688;23.344;2023-04-03T02:12:06;15.50;;;7.38;;
20026;SDS011;10174;42.688;23.344;2023-04-03T02:14:32;12.50;;;6.40;;
20026;SDS011;10174;42.688;23.344;2023-04-03T02:16:57;14.15;;;6.53;;
20026;SDS011;10174;42.688;23.344;2023-04-03T02:19:23;11.23;;;6.40;;
20026;SDS011;10174;42.688;23.344;2023-04-03T02:21:48;15.77;;;6.60;;
20026;SDS011;10174;42.688;23.344;2023-04-03T02:24:13;21.52;;;7.57;;
20026;SDS011;10174;42.688;23.344;2023-04-03T02:26:39;22.95;;;8.15;;
20026;SDS011;10174;42.688;23.344;2023-04-03T02:29:04;27.38;;;8.13;;
20026;SDS011;10174;42.688;23.344;2023-04-03T02:31:30;21.80;;;8.15;;
20026;SDS011;10174;42.688;23.344;2023-04-03T02:33:56;28.55;;;9.15;;
20026;SDS011;10174;42.688;23.344;2023-04-03T02:36:21;25.10;;;9.52;;
20026;SDS011;10174;42.688;23.344;2023-04-03T02:38:47;28.52;;;9.82;;
20026;SDS011;10174;42.688;23.344;2023-04-03T02:41:13;20.75;;;7.57;;
20026;SDS011;10174;42.688;23.344;2023-04-03T02:43:39;27.75;;;9.23;;
20026;SDS011;10174;42.688;23.344;2023-04-03T02:46:05;16.30;;;8.20;;
20026;SDS011;10174;42.688;23.344;2023-04-03T02:48:31;25.25;;;8.07;;
20026;SDS011;10174;42.688;23.344;2023-04-03T02:50:56;33.13;;;8.27;;
20026;SDS011;10174;42.688;23.344;2023-04-03T02:53:22;20.80;;;8.40;;
20026;SDS011;10174;42.688;23.344;2023-04-03T02:55:48;19.30;;;7.63;;
20026;SDS011;10174;42.688;23.344;2023-04-03T02:58:13;35.58;;;9.10;;
20026;SDS011;10174;42.688;23.344;2023-04-03T03:00:39;24.35;;;8.70;;
20026;SDS011;10174;42.688;23.344;2023-04-03T03:03:05;29.40;;;8.02;;
20026;SDS011;10174;42.688;23.344;2023-04-03T03:05:30;29.90;;;8.90;;
20026;SDS011;10174;42.688;23.344;2023-04-03T03:07:57;33.05;;;10.32;;
20026;SDS011;10174;42.688;23.344;2023-04-03T03:10:22;26.92;;;9.05;;
20026;SDS011;10174;42.688;23.344;2023-04-03T03:12:48;22.27;;;9.20;;
20026;SDS011;10174;42.688;23.344;2023-04-03T03:15:14;30.65;;;8.80;;
20026;SDS011;10174;42.688;23.344;2023-04-03T03:17:41;23.75;;;9.15;;
20026;SDS011;10174;42.688;23.344;2023-04-03T03:20:06;39.65;;;11.05;;
20026;SDS011;10174;42.688;23.344;2023-04-03T03:22:33;34.88;;;9.52;;
20026;SDS011;10174;42.688;23.344;2023-04-03T03:24:59;38.15;;;10.60;;
20026;SDS011;10174;42.688;23.344;2023-04-03T03:27:25;30.60;;;9.82;;
20026;SDS011;10174;42.688;23.344;2023-04-03T03:29:51;22.45;;;8.73;;
20026;SDS011;10174;42.688;23.344;2023-04-03T03:32:16;29.65;;;11.40;;
20026;SDS011;10174;42.688;23.344;2023-04-03T03:34:41;24.95;;;10.60;;
20026;SDS011;10174;42.688;23.344;2023-04-03T03:37:07;23.83;;;10.40;;
20026;SDS011;10174;42.688;23.344;2023-04-03T03:39:32;30.75;;;10.82;;
20026;SDS011;10174;42.688;23.344;2023-04-03T03:41:57;38.50;;;12.43;;
20026;SDS011;10174;42.688;23.344;2023-04-03T03:44:23;37.90;;;12.10;;
20026;SDS011;10174;42.688;23.344;2023-04-03T03:46:48;38.60;;;11.38;;
20026;SDS011;10174;42.688;23.344;2023-04-03T03:49:13;40.78;;;12.68;;
20026;SDS011;10174;42.688;23.344;2023-04-03T03:51:39;42.88;;;12.27;;
20026;SDS011;10174;42.688;23.344;2023-04-03T03:54:05;50.03;;;13.82;;
20026;SDS011;10174;42.688;23.344;2023-04-03T03:56:31;45.65;;;14.20;;
20026;SDS011;10174;42.688;23.344;2023-04-03T03:58:56;60.20;;;14.15;;
20026;SDS011;10174;42.688;23.344;2023-04-03T04:01:22;47.55;;;14.65;;
20026;SDS011;10174;42.688;23.344;2023-04-03T04:03:49;53.72;;;15.07;;
20026;SDS011;10174;42.688;23.344;2023-04-03T04:06:14;56.80;;;14.57;;
20026;SDS011;10174;42.688;23.344;2023-04-03T04:08:40;37.47;;;13.30;;
20026;SDS011;10174;42.688;23.344;2023-04-03T04:11:06;46.15;;;13.48;;
20026;SDS011;10174;42.688;23.344;2023-04-03T04:13:32;50.40;;;14.45;;
20026;SDS011;10174;42.688;23.344;2023-04-03T04:15:57;35.83;;;14.98;;
20026;SDS011;10174;42.688;23.344;2023-04-03T04:18:23;46.35;;;14.27;;
20026;SDS011;10174;42.688;23.344;2023-04-03T04:20:48;51.83;;;14.40;;
20026;SDS011;10174;42.688;23.344;2023-04-03T04:23:14;41.15;;;14.27;;
20026;SDS011;10174;42.688;23.344;2023-04-03T04:25:40;38.85;;;14.63;;
20026;SDS011;10174;42.688;23.344;2023-04-03T04:28:06;33.60;;;13.98;;
20026;SDS011;10174;42.688;23.344;2023-04-03T04:30:31;35.63;;;14.20;;
20026;SDS011;10174;42.688;23.344;2023-04-03T04:32:56;41.47;;;13.90;;
20026;SDS011;10174;42.688;23.344;2023-04-03T04:35:22;32.58;;;13.68;;
20026;SDS011;10174;42.688;23.344;2023-04-03T04:37:47;37.95;;;13.65;;
20026;SDS011;10174;42.688;23.344;2023-04-03T04:40:13;30.30;;;12.93;;
20026;SDS011;10174;42.688;23.344;2023-04-03T04:42:38;43.13;;;14.32;;
20026;SDS011;10174;42.688;23.344;2023-04-03T04:45:04;48.40;;;15.50;;
20026;SDS011;10174;42.688;23.344;2023-04-03T04:47:30;40.75;;;14.75;;
20026;SDS011;10174;42.688;23.344;2023-04-03T04:49:55;39.60;;;14.18;;
20026;SDS011;10174;42.688;23.344;2023-04-03T04:52:21;55.95;;;15.02;;
20026;SDS011;10174;42.688;23.344;2023-04-03T04:54:46;45.70;;;15.90;;
20026;SDS011;10174;42.688;23.344;2023-04-03T04:57:12;52.53;;;15.40;;
20026;SDS011;10174;42.688;23.344;2023-04-03T04:59:37;48.60;;;15.25;;
20026;SDS011;10174;42.688;23.344;2023-04-03T05:02:03;55.47;;;15.65;;
20026;SDS011;10174;42.688;23.344;2023-04-03T05:04:28;59.05;;;15.73;;
20026;SDS011;10174;42.688;23.344;2023-04-03T05:06:53;64.88;;;15.63;;
20026;SDS011;10174;42.688;23.344;2023-04-03T05:09:19;48.13;;;13.90;;
20026;SDS011;10174;42.688;23.344;2023-04-03T05:11:45;46.17;;;14.23;;
20026;SDS011;10174;42.688;23.344;2023-04-03T05:14:11;50.20;;;15.63;;
20026;SDS011;10174;42.688;23.344;2023-04-03T05:16:36;51.38;;;16.45;;
20026;SDS011;10174;42.688;23.344;2023-04-03T05:19:03;44.45;;;17.95;;
20026;SDS011;10174;42.688;23.344;2023-04-03T05:21:28;55.03;;;17.40;;
20026;SDS011;10174;42.688;23.344;2023-04-03T05:23:57;45.75;;;17.15;;
20026;SDS011;10174;42.688;23.344;2023-04-03T05:26:27;39.20;;;17.80;;
20026;SDS011;10174;42.688;23.344;2023-04-03T05:28:54;43.05;;;16.75;;
20026;SDS011;10174;42.688;23.344;2023-04-03T05:31:20;41.35;;;16.02;;
20026;SDS011;10174;42.688;23.344;2023-04-03T05:33:45;46.00;;;18.10;;
20026;SDS011;10174;42.688;23.344;2023-04-03T05:36:12;48.70;;;18.30;;
20026;SDS011;10174;42.688;23.344;2023-04-03T05:38:38;54.55;;;21.02;;
20026;SDS011;10174;42.688;23.344;2023-04-03T05:41:04;44.78;;;19.77;;
20026;SDS011;10174;42.688;23.344;2023-04-03T05:43:30;52.40;;;18.67;;
20026;SDS011;10174;42.688;23.344;2023-04-03T05:45:55;54.17;;;20.20;;
20026;SDS011;10174;42.688;23.344;2023-04-03T05:48:21;48.20;;;18.88;;
20026;SDS011;10174;42.688;23.344;2023-04-03T05:50:46;48.08;;;19.95;;
20026;SDS011;10174;42.688;23.344;2023-04-03T05:53:15;52.97;;;21.92;;
20026;SDS011;10174;42.688;23.344;2023-04-03T05:55:44;53.70;;;21.50;;
20026;SDS011;10174;42.688;23.344;2023-04-03T05:58:10;45.22;;;21.55;;
20026;SDS011;10174;42.688;23.344;2023-04-03T06:00:35;53.80;;;21.95;;
20026;SDS011;10174;42.688;23.344;2023-04-03T06:03:01;39.22;;;17.35;;
20026;SDS011;10174;42.688;23.344;2023-04-03T06:05:26;36.83;;;14.45;;
20026;SDS011;10174;42.688;23.344;2023-04-03T06:07:51;27.73;;;12.88;;
20026;SDS011;10174;42.688;23.344;2023-04-03T06:10:17;31.15;;;13.07;;
20026;SDS011;10174;42.688;23.344;2023-04-03T06:12:42;34.55;;;14.07;;
20026;SDS011;10174;42.688;23.344;2023-04-03T06:15:08;33.28;;;14.05;;
20026;SDS011;10174;42.688;23.344;2023-04-03T06:17:35;35.65;;;15.27;;
20026;SDS011;10174;42.688;23.344;2023-04-03T06:20:02;40.40;;;15.85;;
20026;SDS011;10174;42.688;23.344;2023-04-03T06:22:28;40.03;;;18.33;;
20026;SDS011;10174;42.688;23.344;2023-04-03T06:24:54;40.42;;;18.48;;
20026;SDS011;10174;42.688;23.344;2023-04-03T06:27:20;40.30;;;21.00;;
20026;SDS011;10174;42.688;23.344;2023-04-03T06:29:46;59.95;;;27.60;;
20026;SDS011;10174;42.688;23.344;2023-04-03T06:32:11;42.78;;;20.10;;
20026;SDS011;10174;42.688;23.344;2023-04-03T06:34:37;42.97;;;21.83;;
20026;SDS011;10174;42.688;23.344;2023-04-03T06:37:02;47.75;;;21.40;;
20026;SDS011;10174;42.688;23.344;2023-04-03T06:39:28;50.50;;;23.05;;
20026;SDS011;10174;42.688;23.344;2023-04-03T06:41:54;68.55;;;23.27;;
20026;SDS011;10174;42.688;23.344;2023-04-03T06:44:20;44.33;;;22.48;;
20026;SDS011;10174;42.688;23.344;2023-04-03T06:46:45;47.90;;;23.73;;
20026;SDS011;10174;42.688;23.344;2023-04-03T06:49:11;52.28;;;20.88;;
20026;SDS011;10174;42.688;23.344;2023-04-03T06:51:37;48.72;;;20.80;;
20026;SDS011;10174;42.688;23.344;2023-04-03T06:54:03;54.28;;;21.83;;
20026;SDS011;10174;42.688;23.344;2023-04-03T06:56:30;45.03;;;19.90;;
20026;SDS011;10174;42.688;23.344;2023-04-03T06:58:57;58.22;;;19.77;;
20026;SDS011;10174;42.688;23.344;2023-04-03T07:01:23;40.50;;;18.63;;
20026;SDS011;10174;42.688;23.344;2023-04-03T07:03:51;49.70;;;19.27;;
20026;SDS011;10174;42.688;23.344;2023-04-03T07:06:17;44.25;;;19.67;;
20026;SDS011;10174;42.688;23.344;2023-04-03T07:08:43;47.33;;;19.30;;
20026;SDS011;10174;42.688;23.344;2023-04-03T07:11:10;49.60;;;18.95;;
20026;SDS011;10174;42.688;23.344;2023-04-03T07:13:37;45.50;;;17.55;;
20026;SDS011;10174;42.688;23.344;2023-04-03T07:16:03;39.20;;;17.70;;
20026;SDS011;10174;42.688;23.344;2023-04-03T07:18:30;35.83;;;16.83;;
20026;SDS011;10174;42.688;23.344;2023-04-03T07:20:55;43.70;;;16.05;;
20026;SDS011;10174;42.688;23.344;2023-04-03T07:23:21;35.17;;;15.90;;
20026;SDS011;10174;42.688;23.344;2023-04-03T07:25:49;38.78;;;15.85;;
20026;SDS011;10174;42.688;23.344;2023-04-03T07:28:16;36.67;;;15.30;;
20026;SDS011;10174;42.688;23.344;2023-04-03T07:30:46;32.72;;;15.07;;
20026;SDS011;10174;42.688;23.344;2023-04-03T07:33:13;33.55;;;15.85;;
20026;SDS011;10174;42.688;23.344;2023-04-03T07:35:40;30.92;;;15.13;;
20026;SDS011;10174;42.688;23.344;2023-04-03T07:38:06;41.72;;;17.55;;
20026;SDS011;10174;42.688;23.344;2023-04-03T07:40:32;45.65;;;19.23;;
20026;SDS011;10174;42.688;23.344;2023-04-03T07:42:58;55.55;;;21.17;;
20026;SDS011;10174;42.688;23.344;2023-04-03T07:45:23;61.33;;;23.70;;
20026;SDS011;10174;42.688;23.344;2023-04-03T07:47:49;61.25;;;29.52;;
20026;SDS011;10174;42.688;23.344;2023-04-03T07:50:15;49.72;;;23.48;;
20026;SDS011;10174;42.688;23.344;2023-04-03T07:52:41;51.53;;;22.00;;
20026;SDS011;10174;42.688;23.344;2023-04-03T07:55:07;41.63;;;23.00;;
20026;SDS011;10174;42.688;23.344;2023-04-03T07:57:33;47.05;;;20.38;;
20026;SDS011;10174;42.688;23.344;2023-04-03T07:59:58;57.50;;;23.38;;
20026;SDS011;10174;42.688;23.344;2023-04-03T08:02:24;61.50;;;22.83;;
20026;SDS011;10174;42.688;23.344;2023-04-03T08:04:50;48.83;;;23.30;;
20026;SDS011;10174;42.688;23.344;2023-04-03T08:07:15;51.65;;;21.58;;
20026;SDS011;10174;42.688;23.344;2023-04-03T08:09:40;56.22;;;23.42;;
20026;SDS011;10174;42.688;23.344;2023-04-03T08:12:06;55.55;;;23.67;;
20026;SDS011;10174;42.688;23.344;2023-04-03T08:14:32;58.45;;;24.58;;
20026;SDS011;10174;42.688;23.344;2023-04-03T08:16:59;53.95;;;24.10;;
20026;SDS011;10174;42.688;23.344;2023-04-03T08:19:25;46.65;;;23.23;;
20026;SDS011;10174;42.688;23.344;2023-04-03T08:21:51;45.45;;;23.48;;
20026;SDS011;10174;42.688;23.344;2023-04-03T08:24:17;50.63;;;26.70;;
20026;SDS011;10174;42.688;23.344;2023-04-03T08:26:42;65.10;;;26.23;;
20026;SDS011;10174;42.688;23.344;2023-04-03T08:29:08;53.83;;;24.13;;
20026;SDS011;10174;42.688;23.344;2023-04-03T08:31:33;54.75;;;23.83;;
20026;SDS011;10174;42.688;23.344;2023-04-03T08:33:59;66.03;;;24.77;;
20026;SDS011;10174;42.688;23.344;2023-04-03T08:36:28;63.75;;;24.63;;
20026;SDS011;10174;42.688;23.344;2023-04-03T08:38:56;50.65;;;25.08;;
20026;SDS011;10174;42.688;23.344;2023-04-03T08:46:21;58.17;;;22.35;;
20026;SDS011;10174;42.688;23.344;2023-04-03T08:48:51;62.97;;;23.30;;
20026;SDS011;10174;42.688;23.344;2023-04-03T08:51:18;53.28;;;22.52;;
20026;SDS011;10174;42.688;23.344;2023-04-03T08:53:48;43.45;;;22.90;;
20026;SDS011;10174;42.688;23.344;2023-04-03T08:56:17;56.55;;;23.02;;
20026;SDS011;10174;42.688;23.344;2023-04-03T09:01:27;43.17;;;18.55;;
20026;SDS011;10174;42.688;23.344;2023-04-03T09:04:00;40.80;;;18.42;;
20026;SDS011;10174;42.688;23.344;2023-04-03T09:06:27;47.17;;;19.85;;
20026;SDS011;10174;42.688;23.344;2023-04-03T09:22:41;42.58;;;18.00;;
20026;SDS011;10174;42.688;23.344;2023-04-03T09:25:15;50.03;;;18.30;;
20026;SDS011;10174;42.688;23.344;2023-04-03T09:27:45;44.33;;;19.70;;
20026;SDS011;10174;42.688;23.344;2023-04-03T09:30:21;47.03;;;19.45;;
20026;SDS011;10174;42.688;23.344;2023-04-03T09:32:49;41.45;;;17.55;;
20026;SDS011;10174;42.688;23.344;2023-04-03T09:35:30;33.22;;;16.70;;
20026;SDS011;10174;42.688;23.344;2023-04-03T09:38:18;34.08;;;16.70;;
20026;SDS011;10174;42.688;23.344;2023-04-03T09:40:45;33.40;;;16.80;;
20026;SDS011;10174;42.688;23.344;2023-04-03T09:46:18;115.40;;;47.28;;
20026;SDS011;10174;42.688;23.344;2023-04-03T09:48:51;40.92;;;18.20;;
20026;SDS011;10174;42.688;23.344;2023-04-03T09:51:21;40.42;;;19.10;;
20026;SDS011;10174;42.688;23.344;2023-04-03T09:53:52;48.30;;;19.45;;
20026;SDS011;10174;42.688;23.344;2023-04-03T09:58:46;41.17;;;18.73;;
20026;SDS011;10174;42.688;23.344;2023-04-03T10:01:23;50.30;;;20.52;;
20026;SDS011;10174;42.688;23.344;2023-04-03T10:06:48;41.63;;;18.27;;
20026;SDS011;10174;42.688;23.344;2023-04-03T10:14:24;61.35;;;26.15;;
20026;SDS011;10174;42.688;23.344;2023-04-03T10:16:56;44.67;;;18.33;;
20026;SDS011;10174;42.688;23.344;2023-04-03T10:19:34;51.58;;;18.50;;
20026;SDS011;10174;42.688;23.344;2023-04-03T10:22:25;35.30;;;14.27;;
20026;SDS011;10174;42.688;23.344;2023-04-03T10:25:15;31.17;;;14.90;;
20026;SDS011;10174;42.688;23.344;2023-04-03T10:27:53;34.28;;;15.77;;
20026;SDS011;10174;42.688;23.344;2023-04-03T10:30:36;31.00;;;14.85;;
20026;SDS011;10174;42.688;23.344;2023-04-03T10:41:04;40.05;;;11.85;;
20026;SDS011;10174;42.688;23.344;2023-04-03T10:43:56;33.83;;;11.60;;
20026;SDS011;10174;42.688;23.344;2023-04-03T10:52:28;20.48;;;9.60;;
20026;SDS011;10174;42.688;23.344;2023-04-03T10:55:21;29.27;;;10.23;;
20026;SDS011;10174;42.688;23.344;2023-04-03T10:57:55;24.55;;;10.98;;
20026;SDS011;10174;42.688;23.344;2023-04-03T11:03:10;28.95;;;9.88;;
20026;SDS011;10174;42.688;23.344;2023-04-03T11:05:41;25.58;;;10.68;;
20026;SDS011;10174;42.688;23.344;2023-04-03T11:08:16;50.10;;;18.42;;
20026;SDS011;10174;42.688;23.344;2023-04-03T11:10:44;33.30;;;10.80;;
20026;SDS011;10174;42.688;23.344;2023-04-03T11:16:03;13.80;;;6.18;;
20026;SDS011;10174;42.688;23.344;2023-04-03T11:18:42;17.98;;;6.97;;
20026;SDS011;10174;42.688;23.344;2023-04-03T11:24:13;10.05;;;6.30;;
20026;SDS011;10174;42.688;23.344;2023-04-03T11:26:51;18.52;;;8.85;;
20026;SDS011;10174;42.688;23.344;2023-04-03T11:29:20;16.77;;;8.10;;
20026;SDS011;10174;42.688;23.344;2023-04-03T11:34:49;16.98;;;6.25;;
20026;SDS011;10174;42.688;23.344;2023-04-03T11:37:27;10.57;;;5.20;;
20026;SDS011;10174;42.688;23.344;2023-04-03T11:39:58;10.23;;;5.82;;
20026;SDS011;10174;42.688;23.344;2023-04-03T11:47:53;10.77;;;4.95;;
20026;SDS011;10174;42.688;23.344;2023-04-03T11:58:23;10.25;;;4.93;;
20026;SDS011;10174;42.688;23.344;2023-04-03T12:00:57;9.38;;;5.97;;
20026;SDS011;10174;42.688;23.344;2023-04-03T12:03:33;10.60;;;5.13;;
20026;SDS011;10174;42.688;23.344;2023-04-03T12:08:55;15.75;;;5.82;;
20026;SDS011;10174;42.688;23.344;2023-04-03T12:11:31;36.47;;;17.88;;
20026;SDS011;10174;42.688;23.344;2023-04-03T12:16:28;15.57;;;9.10;;
20026;SDS011;10174;42.688;23.344;2023-04-03T12:18:56;11.68;;;5.82;;
20026;SDS011;10174;42.688;23.344;2023-04-03T12:24:05;12.40;;;5.47;;
20026;SDS011;10174;42.688;23.344;2023-04-03T12:40:45;12.73;;;6.93;;
20026;SDS011;10174;42.688;23.344;2023-04-03T12:49:10;14.63;;;7.15;;
20026;SDS011;10174;42.688;23.344;2023-04-03T12:51:31;14.95;;;7.20;;
20026;SDS011;10174;42.688;23.344;2023-04-03T12:57:08;13.90;;;7.55;;
20026;SDS011;10174;42.688;23.344;2023-04-03T12:59:36;14.48;;;7.70;;
20026;SDS011;10174;42.688;23.344;2023-04-03T13:02:07;18.58;;;8.60;;
20026;SDS011;10174;42.688;23.344;2023-04-03T13:04:42;25.30;;;10.43;;
20026;SDS011;10174;42.688;23.344;2023-04-03T13:07:23;15.43;;;9.15;;
20026;SDS011;10174;42.688;23.344;2023-04-03T13:10:04;23.50;;;11.02;;
20026;SDS011;10174;42.688;23.344;2023-04-03T13:12:47;17.17;;;9.00;;
20026;SDS011;10174;42.688;23.344;2023-04-03T13:15:19;20.95;;;10.52;;
20026;SDS011;10174;42.688;23.344;2023-04-03T13:18:24;18.15;;;10.68;;
20026;SDS011;10174;42.688;23.344;2023-04-03T13:20:52;17.13;;;10.75;;
20026;SDS011;10174;42.688;23.344;2023-04-03T13:23:22;21.98;;;11.80;;
20026;SDS011;10174;42.688;23.344;2023-04-03T13:25:48;18.67;;;11.50;;
20026;SDS011;10174;42.688;23.344;2023-04-03T13:28:24;24.52;;;13.15;;
20026;SDS011;10174;42.688;23.344;2023-04-03T13:30:58;28.05;;;12.23;;
20026;SDS011;10174;42.688;23.344;2023-04-03T13:33:57;20.98;;;12.43;;
20026;SDS011;10174;42.688;23.344;2023-04-03T13:36:43;20.92;;;12.35;;
20026;SDS011;10174;42.688;23.344;2023-04-03T13:41:42;22.98;;;13.15;;
20026;SDS011;10174;42.688;23.344;2023-04-03T13:47:37;20.95;;;12.00;;
20026;SDS011;10174;42.688;23.344;2023-04-03T13:49:42;22.00;;;14.48;;
20026;SDS011;10174;42.688;23.344;2023-04-03T13:57:59;20.75;;;13.00;;
20026;SDS011;10174;42.688;23.344;2023-04-03T14:02:55;22.45;;;13.45;;
20026;SDS011;10174;42.688;23.344;2023-04-03T14:05:21;24.85;;;13.38;;
20026;SDS011;10174;42.688;23.344;2023-04-03T14:07:50;108.72;;;65.72;;
20026;SDS011;10174;42.688;23.344;2023-04-03T14:10:15;23.65;;;14.85;;
20026;SDS011;10174;42.688;23.344;2023-04-03T14:12:41;27.42;;;15.70;;
20026;SDS011;10174;42.688;23.344;2023-04-03T14:15:18;24.98;;;15.57;;
20026;SDS011;10174;42.688;23.344;2023-04-03T14:17:48;30.02;;;17.63;;
20026;SDS011;10174;42.688;23.344;2023-04-03T14:20:17;24.98;;;16.17;;
20026;SDS011;10174;42.688;23.344;2023-04-03T14:22:45;24.27;;;16.38;;
20026;SDS011;10174;42.688;23.344;2023-04-03T14:25:11;24.63;;;15.98;;
20026;SDS011;10174;42.688;23.344;2023-04-03T14:27:38;32.03;;;17.25;;
20026;SDS011;10174;42.688;23.344;2023-04-03T14:30:07;25.30;;;16.15;;
20026;SDS011;10174;42.688;23.344;2023-04-03T14:32:37;23.27;;;16.08;;
20026;SDS011;10174;42.688;23.344;2023-04-03T14:35:03;27.50;;;16.25;;
20026;SDS011;10174;42.688;23.344;2023-04-03T14:37:30;22.63;;;14.52;;
20026;SDS011;10174;42.688;23.344;2023-04-03T14:39:56;21.95;;;13.73;;
20026;SDS011;10174;42.688;23.344;2023-04-03T14:42:24;24.90;;;14.05;;
20026;SDS011;10174;42.688;23.344;2023-04-03T14:44:54;22.70;;;12.35;;
20026;SDS011;10174;42.688;23.344;2023-04-03T14:47:21;17.83;;;12.20;;
20026;SDS011;10174;42.688;23.344;2023-04-03T14:49:49;18.23;;;11.80;;
20026;SDS011;10174;42.688;23.344;2023-04-03T14:52:26;19.23;;;11.30;;
20026;SDS011;10174;42.688;23.344;2023-04-03T14:55:00;16.98;;;11.85;;
20026;SDS011;10174;42.688;23.344;2023-04-03T14:57:29;20.88;;;11.10;;
20026;SDS011;10174;42.688;23.344;2023-04-03T14:59:55;15.07;;;10.40;;
20026;SDS011;10174;42.688;23.344;2023-04-03T15:02:31;15.00;;;9.27;;
20026;SDS011;10174;42.688;23.344;2023-04-03T15:05:02;13.25;;;8.70;;
20026;SDS011;10174;42.688;23.344;2023-04-03T15:07:32;22.05;;;10.82;;
20026;SDS011;10174;42.688;23.344;2023-04-03T15:10:25;11.50;;;8.57;;
20026;SDS011;10174;42.688;23.344;2023-04-03T15:12:48;9.77;;;7.40;;
20026;SDS011;10174;42.688;23.344;2023-04-03T15:15:15;14.50;;;8.50;;
20026;SDS011;10174;42.688;23.344;2023-04-03T15:17:42;12.10;;;7.93;;
20026;SDS011;10174;42.688;23.344;2023-04-03T15:20:13;17.23;;;7.55;;
20026;SDS011;10174;42.688;23.344;2023-04-03T15:22:40;20.05;;;12.13;;
20026;SDS011;10174;42.688;23.344;2023-04-03T15:25:06;31.25;;;11.98;;
20026;SDS011;10174;42.688;23.344;2023-04-03T15:27:33;15.77;;;9.63;;
20026;SDS011;10174;42.688;23.344;2023-04-03T15:29:59;14.38;;;7.20;;
20026;SDS011;10174;42.688;23.344;2023-04-03T15:32:25;12.20;;;6.78;;
20026;SDS011;10174;42.688;23.344;2023-04-03T15:34:50;11.68;;;7.40;;
20026;SDS011;10174;42.688;23.344;2023-04-03T15:37:16;12.55;;;6.75;;
20026;SDS011;10174;42.688;23.344;2023-04-03T15:39:41;13.73;;;7.20;;
20026;SDS011;10174;42.688;23.344;2023-04-03T15:42:06;15.68;;;8.13;;
20026;SDS011;10174;42.688;23.344;2023-04-03T15:44:33;10.98;;;7.20;;
20026;SDS011;10174;42.688;23.344;2023-04-03T15:47:00;11.88;;;8.32;;
20026;SDS011;10174;42.688;23.344;2023-04-03T15:49:27;14.40;;;8.90;;
20026;SDS011;10174;42.688;23.344;2023-04-03T15:51:53;14.80;;;8.68;;
20026;SDS011;10174;42.688;23.344;2023-04-03T15:54:18;12.65;;;8.88;;
20026;SDS011;10174;42.688;23.344;2023-04-03T15:56:44;16.98;;;9.18;;
20026;SDS011;10174;42.688;23.344;2023-04-03T15:59:10;17.45;;;10.70;;
20026;SDS011;10174;42.688;23.344;2023-04-03T16:01:36;17.20;;;9.95;;
20026;SDS011;10174;42.688;23.344;2023-04-03T16:04:02;16.10;;;9.82;;
20026;SDS011;10174;42.688;23.344;2023-04-03T16:06:27;22.27;;;11.05;;
20026;SDS011;10174;42.688;23.344;2023-04-03T16:08:55;23.40;;;11.25;;
20026;SDS011;10174;42.688;23.344;2023-04-03T16:11:23;17.42;;;10.50;;
20026;SDS011;10174;42.688;23.344;2023-04-03T16:13:50;26.27;;;13.15;;
20026;SDS011;10174;42.688;23.344;2023-04-03T16:16:15;18.40;;;10.55;;
20026;SDS011;10174;42.688;23.344;2023-04-03T16:18:41;19.55;;;11.23;;
20026;SDS011;10174;42.688;23.344;2023-04-03T16:21:06;20.05;;;10.88;;
20026;SDS011;10174;42.688;23.344;2023-04-03T16:23:33;22.75;;;11.98;;
20026;SDS011;10174;42.688;23.344;2023-04-03T16:25:59;20.95;;;12.45;;
20026;SDS011;10174;42.688;23.344;2023-04-03T16:28:24;21.80;;;12.95;;
20026;SDS011;10174;42.688;23.344;2023-04-03T16:30:50;31.45;;;15.85;;